This is the latest recevied weather packets stored in our database for station/object OE-11144. If no packets are shown the sender has not sent any weather packets the latest 10 day(s).
| Time | Temp. | Humidity | Pressure | Rain* | Wind** | Luminosity | Snow |
|---|---|---|---|---|---|---|---|
| 1787804728 | 12.22° C | 96% | 1019.2 hPa | 0 mm | - | - | - |
| 1787803901 | 12.22° C | 97% | 1019.2 hPa | 0 mm | - | - | - |
| 1787803528 | 12.22° C | 98% | 1019.3 hPa | 0 mm | - | - | - |
| 1787802928 | 12.22° C | 98% | 1019.1 hPa | 0 mm | - | - | - |
| 1787802328 | 12.22° C | 98% | 1019.2 hPa | 0 mm | - | - | - |
| 1787801728 | 12.22° C | 98% | 1019.2 hPa | 0 mm | - | - | - |
| 1787801128 | 12.78° C | 98% | 1018.8 hPa | 0 mm | - | - | - |
| 1787800301 | 12.22° C | 98% | 1018.8 hPa | 0 mm | - | - | - |
| 1787799928 | 12.22° C | 97% | 1018.9 hPa | 0 mm | - | - | - |
| 1787799328 | 13.33° C | 98% | 1018.5 hPa | 0 mm | - | - | - |
| 1787798500 | 12.78° C | 98% | 1018.6 hPa | 0 mm | - | - | - |
| 1787798128 | 12.22° C | 97% | 1019 hPa | 0 mm | - | - | - |
| 1787797528 | 12.22° C | 98% | 1018.9 hPa | 0 mm | - | - | - |
| 1787796701 | 12.78° C | 97% | 1018.7 hPa | 0 mm | - | - | - |
| 1787796327 | 12.78° C | 96% | 1018.6 hPa | 0 mm | - | - | - |
| 1787795728 | 12.78° C | 97% | 1018.7 hPa | 0 mm | - | - | - |
| 1787794901 | 12.78° C | 97% | 1018.7 hPa | 0 mm | - | - | - |
| 1787794528 | 12.78° C | 97% | 1018.6 hPa | 0 mm | - | - | - |
| 1787793928 | 13.33° C | 97% | 1018.5 hPa | 0 mm | - | - | - |
| 1787793101 | 12.78° C | 96% | 1018.5 hPa | 0 mm | - | - | - |
| 1787792728 | 13.33° C | 96% | 1018.4 hPa | 0 mm | - | - | - |
| 1787792128 | 13.33° C | 96% | 1018.2 hPa | 0 mm | - | - | - |
| 1787791301 | 12.78° C | 95% | 1018.4 hPa | 0 mm | - | - | - |
| 1787790928 | 13.89° C | 95% | 1018 hPa | 0 mm | - | - | - |
| 1787790328 | 13.89° C | 92% | 1018.1 hPa | 0 mm | - | - | - |
* Rain latest hour (hover to see other rain measurements)
** Current wind speed in m/s (hover to see current wind gust speed)